createdAt,value
2022-07-28T00:01:13.934Z,15.74
2022-07-28T00:03:46.228Z,15.70
2022-07-28T00:06:14.087Z,15.62
2022-07-28T00:08:42.024Z,15.67
2022-07-28T00:11:11.569Z,15.65
2022-07-28T00:13:39.434Z,15.62
2022-07-28T00:16:08.334Z,15.60
2022-07-28T00:18:36.603Z,15.61
2022-07-28T00:21:04.724Z,15.54
2022-07-28T00:23:35.927Z,15.56
2022-07-28T00:26:08.622Z,15.53
2022-07-28T00:28:37.934Z,15.52
2022-07-28T00:31:11.284Z,15.47
2022-07-28T00:33:41.196Z,15.43
2022-07-28T00:36:11.395Z,15.43
2022-07-28T00:38:43.841Z,15.40
2022-07-28T00:41:12.531Z,15.39
2022-07-28T00:43:43.425Z,15.35
2022-07-28T00:46:11.831Z,15.29
2022-07-28T00:48:41.337Z,15.32
2022-07-28T00:51:10.298Z,15.30
2022-07-28T00:53:39.485Z,15.31
2022-07-28T00:56:11.041Z,15.30
2022-07-28T00:58:41.168Z,15.28
2022-07-28T01:01:15.923Z,15.30
2022-07-28T01:03:47.655Z,15.27
2022-07-28T01:06:24.029Z,15.31
2022-07-28T01:09:01.094Z,15.32
2022-07-28T01:11:42.817Z,15.30
2022-07-28T01:14:19.903Z,15.27
2022-07-28T01:16:53.831Z,15.24
2022-07-28T01:19:37.683Z,15.24
2022-07-28T01:22:11.045Z,15.22
2022-07-28T01:24:51.918Z,15.22
2022-07-28T01:27:36.686Z,15.17
2022-07-28T01:30:10.151Z,15.20
2022-07-28T01:32:44.162Z,15.15
2022-07-28T01:35:16.993Z,15.17
2022-07-28T01:37:48.581Z,15.16
2022-07-28T01:40:21.419Z,15.11
2022-07-28T01:42:53.084Z,15.13
2022-07-28T01:45:22.580Z,15.08
2022-07-28T01:47:54.302Z,15.06
2022-07-28T01:50:25.621Z,15.05
2022-07-28T01:52:55.314Z,15.04
2022-07-28T01:55:25.007Z,15.05
2022-07-28T01:57:56.438Z,15.14
2022-07-28T02:00:27.858Z,15.19
2022-07-28T02:02:59.181Z,15.30
2022-07-28T02:05:28.915Z,15.37
2022-07-28T02:07:58.886Z,15.49
2022-07-28T02:10:28.229Z,15.57
2022-07-28T02:12:57.606Z,15.64
2022-07-28T02:15:29.197Z,15.64
2022-07-28T02:18:00.186Z,15.64
2022-07-28T02:20:29.215Z,15.72
2022-07-28T02:22:58.459Z,15.79
2022-07-28T02:25:27.005Z,15.82
2022-07-28T02:28:01.439Z,15.84
2022-07-28T02:30:35.405Z,15.83
2022-07-28T02:33:08.526Z,15.85
2022-07-28T02:35:46.078Z,15.85
2022-07-28T02:38:22.369Z,15.81
2022-07-28T02:40:52.747Z,15.79
2022-07-28T02:43:26.757Z,15.75
2022-07-28T02:46:17.665Z,15.67
2022-07-28T02:48:50.535Z,15.57
2022-07-28T02:51:19.969Z,15.56
2022-07-28T02:53:49.426Z,15.55
2022-07-28T02:56:18.820Z,15.56
2022-07-28T02:58:48.088Z,15.49
2022-07-28T03:01:20.061Z,15.45
2022-07-28T03:03:50.482Z,15.53
2022-07-28T03:06:26.623Z,15.54
2022-07-28T03:08:56.772Z,15.55
2022-07-28T03:11:24.816Z,15.53
2022-07-28T03:13:53.206Z,15.57
2022-07-28T03:16:21.229Z,15.58
2022-07-28T03:18:52.670Z,15.57
2022-07-28T03:21:20.618Z,15.59
2022-07-28T03:23:51.151Z,15.56
2022-07-28T03:26:26.711Z,15.62
2022-07-28T03:28:58.853Z,15.65
2022-07-28T03:31:28.654Z,15.71
2022-07-28T03:33:58.617Z,15.74
2022-07-28T03:36:32.304Z,15.86
2022-07-28T03:39:03.146Z,15.90
2022-07-28T03:41:33.420Z,15.88
2022-07-28T03:44:03.189Z,15.96
2022-07-28T03:46:31.242Z,15.94
2022-07-28T03:49:00.844Z,16.03
2022-07-28T03:51:29.664Z,16.09
2022-07-28T03:53:57.560Z,16.19
2022-07-28T03:56:25.816Z,16.23
2022-07-28T03:58:53.659Z,16.25
2022-07-28T04:01:21.605Z,16.33
2022-07-28T04:03:49.836Z,16.40
2022-07-28T04:06:19.220Z,16.43
2022-07-28T04:08:47.180Z,16.48
2022-07-28T04:11:15.338Z,16.51
2022-07-28T04:13:43.296Z,16.55
2022-07-28T04:16:11.269Z,16.52
2022-07-28T04:18:39.840Z,16.55
2022-07-28T04:21:07.929Z,16.56
2022-07-28T04:23:37.149Z,16.60
2022-07-28T04:26:05.357Z,16.63
2022-07-28T04:28:33.354Z,16.64
2022-07-28T04:31:01.426Z,16.65
2022-07-28T04:33:30.619Z,16.64
2022-07-28T04:36:00.861Z,16.64
2022-07-28T04:38:28.811Z,16.75
2022-07-28T04:40:58.836Z,16.80
2022-07-28T04:43:26.736Z,16.82
2022-07-28T04:45:54.828Z,16.86
2022-07-28T04:48:24.247Z,16.86
2022-07-28T04:50:53.063Z,16.83
2022-07-28T04:53:21.518Z,16.76
2022-07-28T04:55:51.746Z,16.72
2022-07-28T04:58:24.530Z,16.77
2022-07-28T05:00:52.840Z,16.88
2022-07-28T05:03:21.288Z,17.07
2022-07-28T05:05:54.532Z,17.12
2022-07-28T05:08:25.700Z,17.14
2022-07-28T05:10:55.659Z,17.40
2022-07-28T05:13:30.305Z,17.57
2022-07-28T05:16:01.758Z,17.68
2022-07-28T05:18:29.965Z,17.79
2022-07-28T05:20:57.883Z,17.90
2022-07-28T05:23:25.836Z,17.99
2022-07-28T05:25:54.055Z,18.02
2022-07-28T05:28:21.996Z,18.08
2022-07-28T05:30:51.485Z,18.14
2022-07-28T05:33:19.640Z,18.27
2022-07-28T05:35:53.499Z,18.36
2022-07-28T05:38:21.974Z,18.44
2022-07-28T05:40:50.176Z,18.62
2022-07-28T05:43:18.532Z,18.53
2022-07-28T05:45:46.678Z,18.47
2022-07-28T05:48:18.256Z,18.59
2022-07-28T05:50:46.298Z,18.57
2022-07-28T05:53:14.304Z,18.64
2022-07-28T05:56:00.382Z,18.68
2022-07-28T05:58:29.681Z,18.89
2022-07-28T06:01:01.166Z,19.01
2022-07-28T06:03:32.272Z,19.21
2022-07-28T06:06:15.059Z,19.35
2022-07-28T06:08:44.851Z,19.41
2022-07-28T06:11:21.575Z,19.48
2022-07-28T06:13:50.465Z,19.77
2022-07-28T06:16:19.736Z,19.73
2022-07-28T06:18:49.228Z,19.80
2022-07-28T06:21:17.386Z,19.70
2022-07-28T06:23:46.433Z,19.66
2022-07-28T06:26:14.334Z,19.95
2022-07-28T06:28:42.437Z,20.34
2022-07-28T06:31:10.432Z,20.59
2022-07-28T06:33:38.474Z,20.82
2022-07-28T06:36:07.931Z,20.78
2022-07-28T06:38:35.870Z,20.67
2022-07-28T06:41:03.815Z,20.42
2022-07-28T06:43:38.283Z,20.47
2022-07-28T06:46:06.867Z,20.55
2022-07-28T06:48:37.795Z,20.42
2022-07-28T06:51:07.479Z,20.58
2022-07-28T06:53:35.677Z,21.01
2022-07-28T06:56:04.796Z,21.04
2022-07-28T06:58:33.347Z,20.92
2022-07-28T07:01:02.691Z,20.84
2022-07-28T07:03:30.967Z,20.33
2022-07-28T07:05:58.903Z,20.53
2022-07-28T07:08:28.338Z,20.30
2022-07-28T07:10:57.002Z,20.17
2022-07-28T07:13:24.958Z,20.18
2022-07-28T07:15:53.015Z,20.39
2022-07-28T07:18:20.985Z,20.58
2022-07-28T07:20:49.064Z,20.55
2022-07-28T07:23:16.996Z,20.78
2022-07-28T07:25:46.349Z,20.89
2022-07-28T07:28:14.260Z,21.13
2022-07-28T07:30:42.161Z,21.19
2022-07-28T07:33:10.714Z,21.25
2022-07-28T07:35:39.255Z,21.28
2022-07-28T07:38:07.210Z,21.37
2022-07-28T07:40:35.507Z,21.38
2022-07-28T07:43:05.164Z,21.30
2022-07-28T07:45:34.459Z,21.14
2022-07-28T07:48:03.241Z,21.03
2022-07-28T07:50:31.534Z,20.97
2022-07-28T07:52:59.608Z,20.92
2022-07-28T07:55:27.850Z,20.94
2022-07-28T07:58:02.586Z,20.95
2022-07-28T08:00:32.138Z,20.89
2022-07-28T08:03:01.040Z,20.98
2022-07-28T08:05:36.057Z,20.97
2022-07-28T08:08:06.158Z,20.82
2022-07-28T08:10:34.626Z,21.04
2022-07-28T08:13:03.280Z,20.88
2022-07-28T08:15:32.978Z,20.85
2022-07-28T08:18:01.560Z,20.95
2022-07-28T08:20:30.038Z,20.69
2022-07-28T08:22:58.975Z,20.91
2022-07-28T08:25:27.559Z,20.51
2022-07-28T08:27:55.533Z,20.53
2022-07-28T08:30:27.497Z,20.51
2022-07-28T08:33:02.829Z,20.63
2022-07-28T08:35:34.322Z,20.77
2022-07-28T08:38:03.160Z,20.80
2022-07-28T08:40:32.643Z,20.58
2022-07-28T08:43:07.979Z,20.51
2022-07-28T08:45:37.630Z,20.48
2022-07-28T08:48:10.851Z,20.50
2022-07-28T08:50:40.400Z,20.42
2022-07-28T08:53:08.690Z,20.38
2022-07-28T08:55:37.914Z,20.44
2022-07-28T08:58:06.447Z,20.44
2022-07-28T09:00:34.921Z,20.43
2022-07-28T09:03:04.639Z,20.51
2022-07-28T09:05:35.277Z,20.66
2022-07-28T09:08:04.078Z,21.04
2022-07-28T09:10:32.196Z,21.35
2022-07-28T09:13:00.217Z,21.57
2022-07-28T09:15:28.494Z,21.55
2022-07-28T09:17:56.703Z,21.65
2022-07-28T09:20:25.232Z,21.61
2022-07-28T09:23:02.462Z,21.94
2022-07-28T09:25:31.356Z,22.24
2022-07-28T09:28:07.482Z,22.88
2022-07-28T09:30:38.031Z,24.46
2022-07-28T09:33:41.071Z,25.88
2022-07-28T09:36:16.351Z,27.99
2022-07-28T09:38:46.184Z,27.10
2022-07-28T09:41:18.938Z,25.72
2022-07-28T09:43:53.922Z,24.87
2022-07-28T09:46:24.456Z,23.95
2022-07-28T09:48:58.466Z,23.50
2022-07-28T09:51:28.564Z,23.15
2022-07-28T09:54:08.843Z,22.68
2022-07-28T09:56:36.817Z,22.32
2022-07-28T09:59:04.747Z,22.25
2022-07-28T10:01:36.934Z,22.31
2022-07-28T10:04:05.564Z,22.16
2022-07-28T10:06:37.858Z,22.00
2022-07-28T10:09:08.271Z,21.90
2022-07-28T10:11:41.533Z,21.76
2022-07-28T10:14:10.138Z,21.60
2022-07-28T10:16:44.159Z,21.60
2022-07-28T10:19:12.092Z,21.59
2022-07-28T10:21:44.546Z,21.62
2022-07-28T10:24:21.870Z,21.49
2022-07-28T10:26:52.544Z,21.45
2022-07-28T10:29:23.277Z,21.38
2022-07-28T10:31:54.387Z,21.37
2022-07-28T10:34:24.716Z,21.34
2022-07-28T10:36:55.900Z,21.34
2022-07-28T10:39:32.289Z,21.46
2022-07-28T10:42:01.244Z,21.48
2022-07-28T10:44:31.170Z,21.42
2022-07-28T10:46:59.695Z,21.45
2022-07-28T10:49:32.759Z,21.29
2022-07-28T10:52:02.312Z,21.27
2022-07-28T10:54:34.377Z,21.39
2022-07-28T10:57:06.385Z,21.62
2022-07-28T10:59:58.265Z,21.54
2022-07-28T11:02:50.562Z,21.47
2022-07-28T11:05:29.579Z,21.66
2022-07-28T11:07:58.948Z,21.98
2022-07-28T11:10:29.526Z,21.95
2022-07-28T11:12:59.209Z,22.04
2022-07-28T11:15:29.493Z,22.06
2022-07-28T11:18:06.433Z,22.23
2022-07-28T11:21:09.376Z,21.97
2022-07-28T11:23:47.598Z,22.37
2022-07-28T11:26:38.416Z,22.50
2022-07-28T11:29:24.062Z,22.25
2022-07-28T11:32:06.036Z,22.11
2022-07-28T11:35:20.047Z,22.38
2022-07-28T11:38:13.188Z,22.22
2022-07-28T11:40:43.118Z,22.12
2022-07-28T11:43:41.119Z,22.47
2022-07-28T11:46:40.188Z,22.83
2022-07-28T11:49:27.708Z,23.01
2022-07-28T11:52:20.815Z,23.34
2022-07-28T11:54:58.953Z,23.49
2022-07-28T11:57:28.279Z,23.41
2022-07-28T11:59:59.936Z,23.35
2022-07-28T12:02:30.367Z,23.30
2022-07-28T12:05:05.658Z,23.22
2022-07-28T12:07:39.275Z,23.18
2022-07-28T12:10:54.059Z,23.08
2022-07-28T12:13:29.553Z,23.26
2022-07-28T12:15:59.171Z,23.17
2022-07-28T12:18:27.090Z,23.30
2022-07-28T12:20:55.840Z,23.51
2022-07-28T12:23:39.035Z,23.55
2022-07-28T12:26:13.638Z,23.66
2022-07-28T12:28:51.324Z,23.76
2022-07-28T12:31:26.103Z,23.78
2022-07-28T12:33:54.270Z,23.78
2022-07-28T12:36:24.260Z,23.59
2022-07-28T12:38:53.171Z,23.54
2022-07-28T12:41:21.234Z,22.94
2022-07-28T12:43:53.834Z,23.11
2022-07-28T12:46:28.263Z,23.04
2022-07-28T12:48:58.136Z,23.35
2022-07-28T12:51:34.081Z,23.51
2022-07-28T12:54:02.004Z,23.69
2022-07-28T12:56:30.254Z,23.72
2022-07-28T12:59:09.261Z,23.61
2022-07-28T13:01:53.166Z,23.65
2022-07-28T13:04:41.009Z,23.63
2022-07-28T13:07:11.518Z,23.69
2022-07-28T13:09:47.993Z,23.83
2022-07-28T13:12:19.813Z,23.84
2022-07-28T13:14:51.975Z,23.70
2022-07-28T13:17:22.816Z,23.74
2022-07-28T13:19:51.401Z,23.79
2022-07-28T13:22:33.065Z,23.88
2022-07-28T13:25:01.254Z,23.67
2022-07-28T13:27:30.041Z,23.68
2022-07-28T13:29:58.114Z,23.72
2022-07-28T13:32:27.928Z,23.83
2022-07-28T13:34:57.024Z,23.63
2022-07-28T13:37:25.103Z,23.43
2022-07-28T13:39:54.644Z,23.65
2022-07-28T13:42:23.578Z,23.83
2022-07-28T13:44:52.170Z,23.79
2022-07-28T13:47:20.336Z,23.77
2022-07-28T13:49:49.625Z,23.63
2022-07-28T13:52:32.460Z,23.65
2022-07-28T13:55:06.052Z,23.77
2022-07-28T13:57:35.845Z,23.67
2022-07-28T14:00:08.145Z,23.50
2022-07-28T14:02:36.850Z,23.25
2022-07-28T14:05:07.097Z,22.78
2022-07-28T14:07:35.403Z,22.82
2022-07-28T14:10:03.631Z,22.67
2022-07-28T14:12:35.065Z,22.63
2022-07-28T14:15:09.802Z,22.32
2022-07-28T14:17:43.736Z,22.09
2022-07-28T14:20:15.731Z,21.87
2022-07-28T14:22:44.525Z,21.73
2022-07-28T14:25:19.745Z,21.77
2022-07-28T14:27:50.129Z,21.56
2022-07-28T14:30:19.329Z,21.69
2022-07-28T14:32:47.313Z,21.82
2022-07-28T14:35:17.234Z,22.05
2022-07-28T14:40:33.378Z,22.23
2022-07-28T14:43:08.020Z,22.30
2022-07-28T14:46:01.363Z,22.31
2022-07-28T14:48:24.469Z,22.38
2022-07-28T14:50:55.558Z,22.32
2022-07-28T14:53:23.793Z,22.09
2022-07-28T14:55:55.874Z,21.78
2022-07-28T14:58:23.911Z,21.75
2022-07-28T15:00:51.795Z,21.64
2022-07-28T15:03:19.793Z,21.70
2022-07-28T15:05:47.826Z,21.95
2022-07-28T15:08:17.151Z,22.13
2022-07-28T15:10:45.190Z,22.20
2022-07-28T15:13:17.111Z,22.15
2022-07-28T15:15:45.045Z,22.13
2022-07-28T15:18:12.906Z,22.03
2022-07-28T15:20:40.819Z,21.91
2022-07-28T15:23:09.630Z,22.11
2022-07-28T15:25:38.876Z,22.10
2022-07-28T15:28:06.933Z,22.31
2022-07-28T15:30:34.976Z,22.44
2022-07-28T15:33:09.383Z,22.56
2022-07-28T15:35:58.764Z,22.61
2022-07-28T15:38:25.531Z,22.51
2022-07-28T15:40:54.916Z,22.36
2022-07-28T15:43:23.867Z,22.36
2022-07-28T15:45:52.371Z,22.32
2022-07-28T15:48:20.523Z,22.29
2022-07-28T15:50:48.813Z,22.30
2022-07-28T15:53:17.051Z,22.31
2022-07-28T15:55:50.527Z,22.23
2022-07-28T15:58:21.345Z,22.33
2022-07-28T16:00:49.653Z,22.35
2022-07-28T16:03:17.582Z,22.41
2022-07-28T16:05:49.486Z,22.48
2022-07-28T16:08:17.736Z,22.35
2022-07-28T16:10:45.717Z,22.47
2022-07-28T16:13:14.934Z,22.43
2022-07-28T16:15:45.847Z,22.44
2022-07-28T16:18:14.462Z,22.25
2022-07-28T16:20:42.770Z,22.09
2022-07-28T16:23:10.665Z,22.06
2022-07-28T16:25:44.808Z,22.11
2022-07-28T16:28:13.153Z,22.24
2022-07-28T16:30:41.107Z,22.27
2022-07-28T16:33:13.007Z,22.34
2022-07-28T16:35:41.161Z,22.37
2022-07-28T16:38:09.097Z,22.30
2022-07-28T16:40:37.220Z,22.21
2022-07-28T16:43:06.427Z,22.29
2022-07-28T16:45:35.789Z,22.21
2022-07-28T16:48:04.413Z,22.23
2022-07-28T16:50:34.835Z,22.17
2022-07-28T16:53:04.974Z,22.23
2022-07-28T16:55:32.883Z,22.22
2022-07-28T16:58:01.055Z,22.18
2022-07-28T17:00:29.559Z,22.16
2022-07-28T17:02:57.397Z,22.15
2022-07-28T17:05:25.555Z,22.09
2022-07-28T17:07:54.826Z,22.06
2022-07-28T17:10:27.427Z,22.11
2022-07-28T17:12:56.570Z,21.99
2022-07-28T17:15:24.741Z,21.89
2022-07-28T17:17:53.208Z,21.95
2022-07-28T17:20:21.711Z,21.94
2022-07-28T17:22:49.904Z,21.98
2022-07-28T17:28:07.586Z,21.91
2022-07-28T17:30:36.193Z,21.89
2022-07-28T17:33:08.652Z,21.88
2022-07-28T17:35:38.215Z,21.88
2022-07-28T17:38:09.233Z,21.93
2022-07-28T17:40:40.217Z,21.97
2022-07-28T17:43:08.815Z,21.91
2022-07-28T17:45:36.779Z,21.90
2022-07-28T17:48:05.271Z,21.86
2022-07-28T17:50:33.194Z,21.87
2022-07-28T17:53:01.736Z,21.85
2022-07-28T17:55:58.155Z,21.89
2022-07-28T17:58:29.142Z,21.84
2022-07-28T18:01:09.317Z,21.78
2022-07-28T18:03:59.226Z,21.75
2022-07-28T18:06:29.805Z,21.72
2022-07-28T18:08:57.699Z,21.68
2022-07-28T18:11:32.814Z,21.55
2022-07-28T18:14:03.840Z,21.58
2022-07-28T18:16:33.180Z,21.55
2022-07-28T18:19:01.068Z,21.49
2022-07-28T18:21:29.247Z,21.38
2022-07-28T18:23:57.198Z,21.36
2022-07-28T18:26:25.147Z,21.36
2022-07-28T18:28:53.035Z,21.35
2022-07-28T18:31:22.404Z,21.32
2022-07-28T18:33:50.562Z,21.21
2022-07-28T18:36:18.429Z,21.20
2022-07-28T18:38:46.443Z,21.15
2022-07-28T18:41:14.341Z,21.08
2022-07-28T18:43:42.257Z,21.06
2022-07-28T18:46:10.502Z,21.04
2022-07-28T18:48:39.833Z,20.98
2022-07-28T18:51:07.766Z,20.90
2022-07-28T18:53:37.112Z,20.84
2022-07-28T18:56:05.706Z,20.78
2022-07-28T18:58:33.619Z,20.73
2022-07-28T19:01:01.651Z,20.70
2022-07-28T19:03:32.261Z,20.66
2022-07-28T19:06:01.876Z,20.52
2022-07-28T19:08:29.747Z,20.49
2022-07-28T19:10:57.655Z,20.40
2022-07-28T19:13:25.614Z,20.27
2022-07-28T19:15:53.480Z,20.31
2022-07-28T19:18:21.485Z,20.29
2022-07-28T19:20:49.457Z,20.20
2022-07-28T19:23:19.551Z,20.08
2022-07-28T19:25:47.405Z,20.04
2022-07-28T19:28:16.243Z,20.04
2022-07-28T19:30:46.092Z,20.00
2022-07-28T19:33:19.088Z,19.89
2022-07-28T19:35:47.480Z,19.82
2022-07-28T19:38:15.395Z,19.81
2022-07-28T19:40:45.200Z,19.67
2022-07-28T19:43:13.082Z,19.63
2022-07-28T19:45:41.446Z,19.57
2022-07-28T19:48:09.409Z,19.45
2022-07-28T19:50:37.316Z,19.42
2022-07-28T19:53:05.398Z,19.36
2022-07-28T19:55:36.210Z,19.36
2022-07-28T19:58:06.130Z,19.34
2022-07-28T20:00:34.937Z,19.33
2022-07-28T20:03:02.951Z,19.25
2022-07-28T20:05:30.943Z,19.13
2022-07-28T20:07:58.809Z,19.11
2022-07-28T20:10:26.734Z,19.11
2022-07-28T20:12:55.303Z,19.04
2022-07-28T20:15:25.428Z,18.99
2022-07-28T20:17:53.714Z,18.95
2022-07-28T20:20:22.041Z,18.86
2022-07-28T20:22:50.362Z,18.85
2022-07-28T20:25:18.330Z,18.82
2022-07-28T20:27:46.176Z,18.76
2022-07-28T20:30:15.186Z,18.72
2022-07-28T20:32:45.379Z,18.63
2022-07-28T20:35:14.060Z,18.59
2022-07-28T20:37:41.934Z,18.55
2022-07-28T20:40:11.314Z,18.46
2022-07-28T20:42:39.312Z,18.45
2022-07-28T20:45:07.854Z,18.40
2022-07-28T20:47:36.036Z,18.36
2022-07-28T20:50:06.308Z,18.38
2022-07-28T20:52:34.885Z,18.35
2022-07-28T20:55:04.561Z,18.23
2022-07-28T20:57:32.534Z,18.22
2022-07-28T21:00:00.470Z,18.18
2022-07-28T21:02:28.506Z,18.17
2022-07-28T21:04:56.416Z,18.16
2022-07-28T21:07:59.984Z,18.17
2022-07-28T21:10:13.664Z,18.09
2022-07-28T21:12:41.521Z,17.93
2022-07-28T21:15:10.520Z,17.86
2022-07-28T21:17:38.692Z,17.84
2022-07-28T21:20:07.389Z,17.86
2022-07-28T21:22:36.700Z,17.80
2022-07-28T21:25:05.310Z,17.84
2022-07-28T21:27:53.225Z,17.58
2022-07-28T21:30:20.328Z,17.60
2022-07-28T21:32:55.768Z,17.59
2022-07-28T21:35:23.945Z,17.69
2022-07-28T21:37:53.324Z,17.66
2022-07-28T21:40:21.320Z,17.61
2022-07-28T21:42:49.375Z,17.58
2022-07-28T21:45:17.354Z,17.49
2022-07-28T21:47:45.357Z,17.47
2022-07-28T21:50:14.104Z,17.44
2022-07-28T21:52:42.155Z,17.43
2022-07-28T21:55:12.094Z,17.39
2022-07-28T21:57:40.062Z,17.31
2022-07-28T22:00:12.091Z,17.31
2022-07-28T22:02:41.223Z,17.31
2022-07-28T22:05:11.102Z,17.33
2022-07-28T22:07:39.119Z,17.23
2022-07-28T22:10:07.619Z,17.21
2022-07-28T22:12:37.109Z,17.17
2022-07-28T22:15:05.462Z,17.17
2022-07-28T22:17:33.538Z,17.24
2022-07-28T22:20:01.473Z,17.20
2022-07-28T22:22:29.415Z,17.17
2022-07-28T22:24:57.517Z,17.10
2022-07-28T22:27:25.487Z,17.12
2022-07-28T22:29:54.736Z,17.05
2022-07-28T22:32:28.109Z,17.08
2022-07-28T22:34:57.563Z,17.02
2022-07-28T22:37:25.905Z,16.97
2022-07-28T22:39:53.822Z,16.92
2022-07-28T22:42:21.755Z,16.94
2022-07-28T22:44:49.761Z,16.92
2022-07-28T22:47:19.022Z,16.92
2022-07-28T22:49:46.882Z,16.87
2022-07-28T22:52:14.957Z,16.82
2022-07-28T22:54:43.077Z,16.78
2022-07-28T22:57:11.731Z,16.80
2022-07-28T22:59:40.290Z,16.81
2022-07-28T23:02:11.050Z,16.83
2022-07-28T23:04:41.403Z,16.79
2022-07-28T23:07:13.499Z,16.75
2022-07-28T23:09:44.009Z,16.71
2022-07-28T23:12:12.443Z,16.74
2022-07-28T23:14:40.382Z,16.70
2022-07-28T23:17:08.341Z,16.69
2022-07-28T23:19:36.211Z,16.69
2022-07-28T23:22:05.837Z,16.67
2022-07-28T23:24:33.777Z,16.64
2022-07-28T23:27:01.970Z,16.63
2022-07-28T23:29:29.988Z,16.63
2022-07-28T23:31:58.049Z,16.64
2022-07-28T23:34:26.369Z,16.57
2022-07-28T23:36:54.277Z,16.52
2022-07-28T23:39:23.748Z,16.52
2022-07-28T23:41:53.491Z,16.46
2022-07-28T23:44:24.650Z,16.49
2022-07-28T23:46:52.540Z,16.50
2022-07-28T23:49:20.729Z,16.45
2022-07-28T23:51:51.769Z,16.47
2022-07-28T23:54:19.900Z,16.47
2022-07-28T23:56:52.179Z,16.50
2022-07-28T23:59:20.073Z,16.47
